sensor_id;sensor_type;location;lat;lon;timestamp;P1;durP1;ratioP1;P2;durP2;ratioP2
40827;SDS011;26549;50.918;5.338;2023-08-20T00:01:05;11.20;;;6.32;;
40827;SDS011;26549;50.918;5.338;2023-08-20T00:03:33;8.13;;;5.45;;
40827;SDS011;26549;50.918;5.338;2023-08-20T00:05:59;10.48;;;6.30;;
40827;SDS011;26549;50.918;5.338;2023-08-20T00:08:25;8.45;;;6.32;;
40827;SDS011;26549;50.918;5.338;2023-08-20T00:10:51;10.20;;;6.57;;
40827;SDS011;26549;50.918;5.338;2023-08-20T00:13:16;10.70;;;7.00;;
40827;SDS011;26549;50.918;5.338;2023-08-20T00:15:42;13.23;;;7.35;;
40827;SDS011;26549;50.918;5.338;2023-08-20T00:18:08;10.23;;;6.55;;
40827;SDS011;26549;50.918;5.338;2023-08-20T00:20:34;17.40;;;7.15;;
40827;SDS011;26549;50.918;5.338;2023-08-20T00:23:02;11.00;;;5.45;;
40827;SDS011;26549;50.918;5.338;2023-08-20T00:25:28;11.00;;;5.65;;
40827;SDS011;26549;50.918;5.338;2023-08-20T00:27:54;10.05;;;5.00;;
40827;SDS011;26549;50.918;5.338;2023-08-20T00:30:19;9.77;;;5.93;;
40827;SDS011;26549;50.918;5.338;2023-08-20T00:32:45;9.00;;;5.60;;
40827;SDS011;26549;50.918;5.338;2023-08-20T00:35:11;11.52;;;5.88;;
40827;SDS011;26549;50.918;5.338;2023-08-20T00:37:37;8.27;;;5.72;;
40827;SDS011;26549;50.918;5.338;2023-08-20T00:40:02;9.77;;;5.70;;
40827;SDS011;26549;50.918;5.338;2023-08-20T00:42:31;9.48;;;6.10;;
40827;SDS011;26549;50.918;5.338;2023-08-20T00:44:57;12.35;;;7.53;;
40827;SDS011;26549;50.918;5.338;2023-08-20T00:47:23;15.50;;;7.00;;
40827;SDS011;26549;50.918;5.338;2023-08-20T00:49:48;8.90;;;6.38;;
40827;SDS011;26549;50.918;5.338;2023-08-20T00:52:15;9.60;;;5.88;;
40827;SDS011;26549;50.918;5.338;2023-08-20T00:54:44;14.35;;;6.38;;
40827;SDS011;26549;50.918;5.338;2023-08-20T00:57:12;14.07;;;6.50;;
40827;SDS011;26549;50.918;5.338;2023-08-20T00:59:40;11.40;;;6.13;;
40827;SDS011;26549;50.918;5.338;2023-08-20T01:02:06;11.02;;;5.57;;
40827;SDS011;26549;50.918;5.338;2023-08-20T01:04:32;10.32;;;6.57;;
40827;SDS011;26549;50.918;5.338;2023-08-20T01:12:35;10.45;;;5.57;;
40827;SDS011;26549;50.918;5.338;2023-08-20T01:15:03;11.05;;;5.47;;
40827;SDS011;26549;50.918;5.338;2023-08-20T01:17:29;11.50;;;4.97;;
40827;SDS011;26549;50.918;5.338;2023-08-20T01:19:56;6.40;;;4.72;;
40827;SDS011;26549;50.918;5.338;2023-08-20T01:27:49;11.73;;;4.75;;
40827;SDS011;26549;50.918;5.338;2023-08-20T01:30:35;13.65;;;4.18;;
40827;SDS011;26549;50.918;5.338;2023-08-20T01:33:01;10.35;;;4.03;;
40827;SDS011;26549;50.918;5.338;2023-08-20T01:35:27;9.95;;;4.53;;
40827;SDS011;26549;50.918;5.338;2023-08-20T01:37:53;8.07;;;4.97;;
40827;SDS011;26549;50.918;5.338;2023-08-20T01:40:19;7.10;;;3.53;;
40827;SDS011;26549;50.918;5.338;2023-08-20T01:42:45;9.60;;;3.75;;
40827;SDS011;26549;50.918;5.338;2023-08-20T01:45:11;9.60;;;3.35;;
40827;SDS011;26549;50.918;5.338;2023-08-20T01:47:37;6.47;;;4.03;;
40827;SDS011;26549;50.918;5.338;2023-08-20T01:50:02;11.27;;;4.18;;
40827;SDS011;26549;50.918;5.338;2023-08-20T01:52:29;8.45;;;4.07;;
40827;SDS011;26549;50.918;5.338;2023-08-20T01:54:56;11.57;;;4.85;;
40827;SDS011;26549;50.918;5.338;2023-08-20T01:57:23;6.53;;;4.45;;
40827;SDS011;26549;50.918;5.338;2023-08-20T01:59:49;10.63;;;3.85;;
40827;SDS011;26549;50.918;5.338;2023-08-20T02:02:14;11.73;;;4.28;;
40827;SDS011;26549;50.918;5.338;2023-08-20T02:04:40;7.60;;;4.60;;
40827;SDS011;26549;50.918;5.338;2023-08-20T02:07:06;11.15;;;3.75;;
40827;SDS011;26549;50.918;5.338;2023-08-20T02:09:33;9.90;;;4.60;;
40827;SDS011;26549;50.918;5.338;2023-08-20T02:11:59;7.40;;;3.85;;
40827;SDS011;26549;50.918;5.338;2023-08-20T02:14:25;8.93;;;3.25;;
40827;SDS011;26549;50.918;5.338;2023-08-20T02:16:53;8.32;;;3.05;;
40827;SDS011;26549;50.918;5.338;2023-08-20T02:19:18;9.07;;;3.40;;
40827;SDS011;26549;50.918;5.338;2023-08-20T02:21:44;9.13;;;2.90;;
40827;SDS011;26549;50.918;5.338;2023-08-20T02:24:10;5.03;;;2.00;;
40827;SDS011;26549;50.918;5.338;2023-08-20T02:26:36;11.85;;;3.13;;
40827;SDS011;26549;50.918;5.338;2023-08-20T02:29:01;8.18;;;3.65;;
40827;SDS011;26549;50.918;5.338;2023-08-20T02:31:29;11.30;;;2.53;;
40827;SDS011;26549;50.918;5.338;2023-08-20T02:33:54;9.35;;;4.13;;
40827;SDS011;26549;50.918;5.338;2023-08-20T02:36:20;6.43;;;2.70;;
40827;SDS011;26549;50.918;5.338;2023-08-20T02:38:46;6.22;;;2.45;;
40827;SDS011;26549;50.918;5.338;2023-08-20T02:41:12;8.80;;;2.30;;
40827;SDS011;26549;50.918;5.338;2023-08-20T02:43:38;6.65;;;2.58;;
40827;SDS011;26549;50.918;5.338;2023-08-20T02:46:03;11.80;;;3.83;;
40827;SDS011;26549;50.918;5.338;2023-08-20T02:48:29;8.65;;;3.10;;
40827;SDS011;26549;50.918;5.338;2023-08-20T02:50:55;6.05;;;2.45;;
40827;SDS011;26549;50.918;5.338;2023-08-20T02:53:22;7.75;;;2.42;;
40827;SDS011;26549;50.918;5.338;2023-08-20T02:55:47;6.43;;;2.83;;
40827;SDS011;26549;50.918;5.338;2023-08-20T02:58:13;10.73;;;2.38;;
40827;SDS011;26549;50.918;5.338;2023-08-20T03:00:40;11.57;;;2.72;;
40827;SDS011;26549;50.918;5.338;2023-08-20T03:03:07;4.47;;;2.13;;
40827;SDS011;26549;50.918;5.338;2023-08-20T03:05:33;4.53;;;1.88;;
40827;SDS011;26549;50.918;5.338;2023-08-20T03:08:00;5.78;;;2.05;;
40827;SDS011;26549;50.918;5.338;2023-08-20T03:10:29;4.93;;;2.25;;
40827;SDS011;26549;50.918;5.338;2023-08-20T03:12:57;7.50;;;1.88;;
40827;SDS011;26549;50.918;5.338;2023-08-20T03:15:26;8.32;;;2.70;;
40827;SDS011;26549;50.918;5.338;2023-08-20T03:17:55;5.10;;;2.40;;
40827;SDS011;26549;50.918;5.338;2023-08-20T03:20:21;6.28;;;2.83;;
40827;SDS011;26549;50.918;5.338;2023-08-20T03:22:47;6.35;;;2.10;;
40827;SDS011;26549;50.918;5.338;2023-08-20T03:25:13;4.78;;;1.77;;
40827;SDS011;26549;50.918;5.338;2023-08-20T03:27:39;6.03;;;2.45;;
40827;SDS011;26549;50.918;5.338;2023-08-20T03:30:05;7.68;;;2.30;;
40827;SDS011;26549;50.918;5.338;2023-08-20T03:32:31;7.03;;;2.20;;
40827;SDS011;26549;50.918;5.338;2023-08-20T03:34:57;7.68;;;2.03;;
40827;SDS011;26549;50.918;5.338;2023-08-20T03:37:24;6.80;;;1.88;;
40827;SDS011;26549;50.918;5.338;2023-08-20T03:39:51;6.22;;;2.10;;
40827;SDS011;26549;50.918;5.338;2023-08-20T03:42:17;7.68;;;2.92;;
40827;SDS011;26549;50.918;5.338;2023-08-20T03:44:42;7.70;;;2.10;;
40827;SDS011;26549;50.918;5.338;2023-08-20T03:47:08;9.15;;;3.08;;
40827;SDS011;26549;50.918;5.338;2023-08-20T03:49:34;7.28;;;3.40;;
40827;SDS011;26549;50.918;5.338;2023-08-20T03:52:00;6.47;;;1.75;;
40827;SDS011;26549;50.918;5.338;2023-08-20T03:54:28;7.78;;;1.85;;
40827;SDS011;26549;50.918;5.338;2023-08-20T03:56:55;7.82;;;2.00;;
40827;SDS011;26549;50.918;5.338;2023-08-20T03:59:21;3.70;;;1.98;;
40827;SDS011;26549;50.918;5.338;2023-08-20T04:01:47;5.10;;;1.90;;
40827;SDS011;26549;50.918;5.338;2023-08-20T04:04:12;7.53;;;1.85;;
40827;SDS011;26549;50.918;5.338;2023-08-20T04:06:38;5.38;;;2.95;;
40827;SDS011;26549;50.918;5.338;2023-08-20T04:09:04;5.18;;;2.75;;
40827;SDS011;26549;50.918;5.338;2023-08-20T04:11:31;6.70;;;2.53;;
40827;SDS011;26549;50.918;5.338;2023-08-20T04:13:57;13.73;;;3.40;;
40827;SDS011;26549;50.918;5.338;2023-08-20T04:16:23;5.65;;;1.88;;
40827;SDS011;26549;50.918;5.338;2023-08-20T04:18:50;5.88;;;1.73;;
40827;SDS011;26549;50.918;5.338;2023-08-20T04:21:17;4.82;;;2.75;;
40827;SDS011;26549;50.918;5.338;2023-08-20T04:23:42;5.28;;;2.15;;
40827;SDS011;26549;50.918;5.338;2023-08-20T04:26:08;4.68;;;2.53;;
40827;SDS011;26549;50.918;5.338;2023-08-20T04:28:35;5.07;;;2.30;;
40827;SDS011;26549;50.918;5.338;2023-08-20T04:31:01;7.85;;;2.22;;
40827;SDS011;26549;50.918;5.338;2023-08-20T04:33:27;7.18;;;2.55;;
40827;SDS011;26549;50.918;5.338;2023-08-20T04:35:53;4.47;;;2.30;;
40827;SDS011;26549;50.918;5.338;2023-08-20T04:38:19;8.52;;;1.98;;
40827;SDS011;26549;50.918;5.338;2023-08-20T04:40:48;7.90;;;2.20;;
40827;SDS011;26549;50.918;5.338;2023-08-20T04:43:14;4.45;;;2.22;;
40827;SDS011;26549;50.918;5.338;2023-08-20T04:45:41;5.55;;;2.47;;
40827;SDS011;26549;50.918;5.338;2023-08-20T04:48:07;5.18;;;2.75;;
40827;SDS011;26549;50.918;5.338;2023-08-20T04:50:33;6.68;;;2.35;;
40827;SDS011;26549;50.918;5.338;2023-08-20T04:52:59;6.18;;;2.60;;
40827;SDS011;26549;50.918;5.338;2023-08-20T04:55:25;5.47;;;2.20;;
40827;SDS011;26549;50.918;5.338;2023-08-20T04:57:52;6.30;;;2.22;;
40827;SDS011;26549;50.918;5.338;2023-08-20T05:00:17;5.80;;;2.45;;
40827;SDS011;26549;50.918;5.338;2023-08-20T05:02:43;6.07;;;2.47;;
40827;SDS011;26549;50.918;5.338;2023-08-20T05:05:10;7.70;;;2.70;;
40827;SDS011;26549;50.918;5.338;2023-08-20T05:07:36;8.40;;;2.97;;
40827;SDS011;26549;50.918;5.338;2023-08-20T05:10:01;12.30;;;3.00;;
40827;SDS011;26549;50.918;5.338;2023-08-20T05:12:28;6.95;;;2.63;;
40827;SDS011;26549;50.918;5.338;2023-08-20T05:14:53;7.72;;;3.20;;
40827;SDS011;26549;50.918;5.338;2023-08-20T05:17:20;7.20;;;3.08;;
40827;SDS011;26549;50.918;5.338;2023-08-20T05:19:47;3.85;;;2.45;;
40827;SDS011;26549;50.918;5.338;2023-08-20T05:22:14;6.90;;;3.75;;
40827;SDS011;26549;50.918;5.338;2023-08-20T05:24:40;5.68;;;2.28;;
40827;SDS011;26549;50.918;5.338;2023-08-20T05:27:13;14.15;;;4.03;;
40827;SDS011;26549;50.918;5.338;2023-08-20T05:29:42;5.03;;;2.88;;
40827;SDS011;26549;50.918;5.338;2023-08-20T05:32:08;9.55;;;3.13;;
40827;SDS011;26549;50.918;5.338;2023-08-20T05:34:34;5.68;;;3.40;;
40827;SDS011;26549;50.918;5.338;2023-08-20T05:37:00;5.63;;;3.05;;
40827;SDS011;26549;50.918;5.338;2023-08-20T05:39:27;7.28;;;2.85;;
40827;SDS011;26549;50.918;5.338;2023-08-20T05:41:53;6.60;;;3.00;;
40827;SDS011;26549;50.918;5.338;2023-08-20T05:44:19;6.72;;;3.20;;
40827;SDS011;26549;50.918;5.338;2023-08-20T05:46:45;10.85;;;3.38;;
40827;SDS011;26549;50.918;5.338;2023-08-20T05:49:12;6.78;;;3.00;;
40827;SDS011;26549;50.918;5.338;2023-08-20T05:51:38;8.27;;;3.03;;
40827;SDS011;26549;50.918;5.338;2023-08-20T05:54:04;4.72;;;2.83;;
40827;SDS011;26549;50.918;5.338;2023-08-20T05:56:30;5.97;;;2.88;;
40827;SDS011;26549;50.918;5.338;2023-08-20T05:58:56;6.47;;;3.22;;
40827;SDS011;26549;50.918;5.338;2023-08-20T06:01:21;6.57;;;2.53;;
40827;SDS011;26549;50.918;5.338;2023-08-20T06:03:47;8.93;;;2.65;;
40827;SDS011;26549;50.918;5.338;2023-08-20T06:06:13;6.68;;;3.08;;
40827;SDS011;26549;50.918;5.338;2023-08-20T06:08:39;4.53;;;2.88;;
40827;SDS011;26549;50.918;5.338;2023-08-20T06:11:04;7.35;;;2.72;;
40827;SDS011;26549;50.918;5.338;2023-08-20T06:13:30;7.05;;;2.90;;
40827;SDS011;26549;50.918;5.338;2023-08-20T06:15:56;4.53;;;2.92;;
40827;SDS011;26549;50.918;5.338;2023-08-20T06:18:22;5.95;;;2.85;;
40827;SDS011;26549;50.918;5.338;2023-08-20T06:20:47;9.52;;;2.72;;
40827;SDS011;26549;50.918;5.338;2023-08-20T06:23:13;10.38;;;3.60;;
40827;SDS011;26549;50.918;5.338;2023-08-20T06:25:39;12.48;;;3.83;;
40827;SDS011;26549;50.918;5.338;2023-08-20T06:28:05;7.40;;;2.85;;
40827;SDS011;26549;50.918;5.338;2023-08-20T06:30:30;8.95;;;2.80;;
40827;SDS011;26549;50.918;5.338;2023-08-20T06:32:56;6.18;;;2.70;;
40827;SDS011;26549;50.918;5.338;2023-08-20T06:35:22;7.72;;;2.58;;
40827;SDS011;26549;50.918;5.338;2023-08-20T06:37:47;5.63;;;2.10;;
40827;SDS011;26549;50.918;5.338;2023-08-20T06:40:13;5.50;;;3.25;;
40827;SDS011;26549;50.918;5.338;2023-08-20T06:42:40;6.22;;;2.85;;
40827;SDS011;26549;50.918;5.338;2023-08-20T06:45:06;8.18;;;2.42;;
40827;SDS011;26549;50.918;5.338;2023-08-20T06:47:33;10.48;;;3.05;;
40827;SDS011;26549;50.918;5.338;2023-08-20T06:49:59;7.75;;;2.72;;
40827;SDS011;26549;50.918;5.338;2023-08-20T06:52:24;6.88;;;2.17;;
40827;SDS011;26549;50.918;5.338;2023-08-20T06:54:50;8.45;;;2.53;;
40827;SDS011;26549;50.918;5.338;2023-08-20T06:57:16;10.88;;;3.38;;
40827;SDS011;26549;50.918;5.338;2023-08-20T06:59:42;8.43;;;2.30;;
40827;SDS011;26549;50.918;5.338;2023-08-20T07:02:08;8.20;;;2.80;;
40827;SDS011;26549;50.918;5.338;2023-08-20T07:04:35;8.43;;;2.20;;
40827;SDS011;26549;50.918;5.338;2023-08-20T07:07:03;6.25;;;2.05;;
40827;SDS011;26549;50.918;5.338;2023-08-20T07:09:33;4.95;;;2.22;;
40827;SDS011;26549;50.918;5.338;2023-08-20T07:11:59;7.72;;;2.30;;
40827;SDS011;26549;50.918;5.338;2023-08-20T07:14:25;8.13;;;3.00;;
40827;SDS011;26549;50.918;5.338;2023-08-20T07:16:50;6.00;;;2.13;;
40827;SDS011;26549;50.918;5.338;2023-08-20T07:19:16;5.72;;;2.70;;
40827;SDS011;26549;50.918;5.338;2023-08-20T07:21:42;10.70;;;2.65;;
40827;SDS011;26549;50.918;5.338;2023-08-20T07:24:07;4.75;;;2.40;;
40827;SDS011;26549;50.918;5.338;2023-08-20T07:26:33;7.20;;;3.13;;
40827;SDS011;26549;50.918;5.338;2023-08-20T07:28:59;13.48;;;4.55;;
40827;SDS011;26549;50.918;5.338;2023-08-20T07:31:26;6.43;;;4.30;;
40827;SDS011;26549;50.918;5.338;2023-08-20T07:33:55;9.10;;;3.97;;
40827;SDS011;26549;50.918;5.338;2023-08-20T07:36:21;10.88;;;4.03;;
40827;SDS011;26549;50.918;5.338;2023-08-20T07:38:48;9.82;;;3.88;;
40827;SDS011;26549;50.918;5.338;2023-08-20T07:41:15;7.90;;;4.63;;
40827;SDS011;26549;50.918;5.338;2023-08-20T07:43:41;9.93;;;4.82;;
40827;SDS011;26549;50.918;5.338;2023-08-20T07:46:07;10.98;;;5.63;;
40827;SDS011;26549;50.918;5.338;2023-08-20T07:48:34;10.82;;;4.15;;
40827;SDS011;26549;50.918;5.338;2023-08-20T07:51:01;8.20;;;3.25;;
40827;SDS011;26549;50.918;5.338;2023-08-20T07:53:27;10.43;;;3.65;;
40827;SDS011;26549;50.918;5.338;2023-08-20T07:55:54;7.25;;;3.35;;
40827;SDS011;26549;50.918;5.338;2023-08-20T07:58:20;12.82;;;4.22;;
40827;SDS011;26549;50.918;5.338;2023-08-20T08:00:46;6.45;;;3.35;;
40827;SDS011;26549;50.918;5.338;2023-08-20T08:03:12;7.05;;;3.53;;
40827;SDS011;26549;50.918;5.338;2023-08-20T08:05:39;9.02;;;3.95;;
40827;SDS011;26549;50.918;5.338;2023-08-20T08:08:18;7.57;;;4.68;;
40827;SDS011;26549;50.918;5.338;2023-08-20T08:10:45;6.63;;;4.50;;
40827;SDS011;26549;50.918;5.338;2023-08-20T08:13:12;11.40;;;3.45;;
40827;SDS011;26549;50.918;5.338;2023-08-20T08:15:38;6.72;;;3.15;;
40827;SDS011;26549;50.918;5.338;2023-08-20T08:18:04;12.30;;;3.70;;
40827;SDS011;26549;50.918;5.338;2023-08-20T08:20:31;6.70;;;2.38;;
40827;SDS011;26549;50.918;5.338;2023-08-20T08:22:57;8.45;;;3.05;;
40827;SDS011;26549;50.918;5.338;2023-08-20T08:25:23;6.93;;;2.55;;
40827;SDS011;26549;50.918;5.338;2023-08-20T08:27:50;9.85;;;3.25;;
40827;SDS011;26549;50.918;5.338;2023-08-20T08:30:19;7.35;;;2.47;;
40827;SDS011;26549;50.918;5.338;2023-08-20T08:32:45;10.98;;;2.05;;
40827;SDS011;26549;50.918;5.338;2023-08-20T08:35:11;8.00;;;2.38;;
40827;SDS011;26549;50.918;5.338;2023-08-20T08:37:37;7.40;;;2.75;;
40827;SDS011;26549;50.918;5.338;2023-08-20T08:40:04;6.30;;;2.63;;
40827;SDS011;26549;50.918;5.338;2023-08-20T08:42:42;8.02;;;2.85;;
40827;SDS011;26549;50.918;5.338;2023-08-20T08:45:20;6.53;;;2.20;;
40827;SDS011;26549;50.918;5.338;2023-08-20T08:47:47;5.70;;;2.50;;
40827;SDS011;26549;50.918;5.338;2023-08-20T08:50:14;8.18;;;2.33;;
40827;SDS011;26549;50.918;5.338;2023-08-20T08:52:41;5.70;;;2.83;;
40827;SDS011;26549;50.918;5.338;2023-08-20T08:55:10;5.50;;;2.50;;
40827;SDS011;26549;50.918;5.338;2023-08-20T08:57:37;6.22;;;2.28;;
40827;SDS011;26549;50.918;5.338;2023-08-20T09:00:03;6.95;;;2.10;;
40827;SDS011;26549;50.918;5.338;2023-08-20T09:02:30;6.18;;;2.55;;
40827;SDS011;26549;50.918;5.338;2023-08-20T09:04:56;11.18;;;2.78;;
40827;SDS011;26549;50.918;5.338;2023-08-20T09:07:23;5.82;;;1.95;;
40827;SDS011;26549;50.918;5.338;2023-08-20T09:09:49;7.10;;;2.75;;
40827;SDS011;26549;50.918;5.338;2023-08-20T09:12:19;6.65;;;1.80;;
40827;SDS011;26549;50.918;5.338;2023-08-20T09:14:49;9.18;;;2.75;;
40827;SDS011;26549;50.918;5.338;2023-08-20T09:17:16;7.13;;;2.33;;
40827;SDS011;26549;50.918;5.338;2023-08-20T09:19:43;7.43;;;2.38;;
40827;SDS011;26549;50.918;5.338;2023-08-20T09:22:13;5.45;;;2.25;;
40827;SDS011;26549;50.918;5.338;2023-08-20T09:24:51;7.65;;;2.00;;
40827;SDS011;26549;50.918;5.338;2023-08-20T09:27:18;5.95;;;2.33;;
40827;SDS011;26549;50.918;5.338;2023-08-20T09:29:45;6.95;;;2.35;;
40827;SDS011;26549;50.918;5.338;2023-08-20T09:34:42;11.20;;;2.30;;
40827;SDS011;26549;50.918;5.338;2023-08-20T09:37:15;7.70;;;3.35;;
40827;SDS011;26549;50.918;5.338;2023-08-20T09:39:41;8.48;;;2.92;;
40827;SDS011;26549;50.918;5.338;2023-08-20T09:42:09;9.02;;;3.00;;
40827;SDS011;26549;50.918;5.338;2023-08-20T09:44:36;6.50;;;2.58;;
40827;SDS011;26549;50.918;5.338;2023-08-20T09:47:07;9.30;;;3.20;;
40827;SDS011;26549;50.918;5.338;2023-08-20T09:49:38;7.20;;;2.13;;
40827;SDS011;26549;50.918;5.338;2023-08-20T09:52:06;6.15;;;2.50;;
40827;SDS011;26549;50.918;5.338;2023-08-20T09:54:35;6.57;;;1.95;;
40827;SDS011;26549;50.918;5.338;2023-08-20T09:57:35;9.40;;;2.67;;
40827;SDS011;26549;50.918;5.338;2023-08-20T10:00:07;7.15;;;2.30;;
40827;SDS011;26549;50.918;5.338;2023-08-20T10:02:37;5.13;;;2.20;;
40827;SDS011;26549;50.918;5.338;2023-08-20T10:05:07;9.70;;;2.90;;
40827;SDS011;26549;50.918;5.338;2023-08-20T10:07:35;6.00;;;2.28;;
40827;SDS011;26549;50.918;5.338;2023-08-20T10:10:03;10.10;;;2.58;;
40827;SDS011;26549;50.918;5.338;2023-08-20T10:12:31;6.65;;;2.50;;
40827;SDS011;26549;50.918;5.338;2023-08-20T10:14:59;7.45;;;2.13;;
40827;SDS011;26549;50.918;5.338;2023-08-20T10:17:25;6.15;;;1.77;;
40827;SDS011;26549;50.918;5.338;2023-08-20T10:19:54;6.13;;;1.80;;
40827;SDS011;26549;50.918;5.338;2023-08-20T10:22:22;6.93;;;1.52;;
40827;SDS011;26549;50.918;5.338;2023-08-20T10:24:57;5.00;;;2.00;;
40827;SDS011;26549;50.918;5.338;2023-08-20T10:29:54;5.60;;;2.45;;
40827;SDS011;26549;50.918;5.338;2023-08-20T10:32:21;7.70;;;1.88;;
40827;SDS011;26549;50.918;5.338;2023-08-20T10:35:18;6.22;;;1.90;;
40827;SDS011;26549;50.918;5.338;2023-08-20T10:43:36;4.25;;;1.10;;
40827;SDS011;26549;50.918;5.338;2023-08-20T10:46:04;9.43;;;1.75;;
40827;SDS011;26549;50.918;5.338;2023-08-20T10:48:53;5.88;;;1.70;;
40827;SDS011;26549;50.918;5.338;2023-08-20T10:56:42;6.78;;;1.77;;
40827;SDS011;26549;50.918;5.338;2023-08-20T10:59:34;4.72;;;1.10;;
40827;SDS011;26549;50.918;5.338;2023-08-20T11:02:05;3.75;;;1.05;;
40827;SDS011;26549;50.918;5.338;2023-08-20T11:04:39;4.35;;;1.63;;
40827;SDS011;26549;50.918;5.338;2023-08-20T11:07:05;3.65;;;1.52;;
40827;SDS011;26549;50.918;5.338;2023-08-20T11:09:31;3.53;;;1.27;;
40827;SDS011;26549;50.918;5.338;2023-08-20T11:11:58;5.25;;;1.30;;
40827;SDS011;26549;50.918;5.338;2023-08-20T11:14:24;7.70;;;1.73;;
40827;SDS011;26549;50.918;5.338;2023-08-20T11:16:51;3.58;;;1.13;;
40827;SDS011;26549;50.918;5.338;2023-08-20T11:19:22;3.20;;;1.17;;
40827;SDS011;26549;50.918;5.338;2023-08-20T11:21:49;5.03;;;1.58;;
40827;SDS011;26549;50.918;5.338;2023-08-20T11:24:16;2.92;;;1.58;;
40827;SDS011;26549;50.918;5.338;2023-08-20T11:26:45;7.35;;;2.47;;
40827;SDS011;26549;50.918;5.338;2023-08-20T11:29:13;3.38;;;1.30;;
40827;SDS011;26549;50.918;5.338;2023-08-20T11:31:40;6.47;;;1.83;;
40827;SDS011;26549;50.918;5.338;2023-08-20T11:34:07;3.03;;;1.10;;
40827;SDS011;26549;50.918;5.338;2023-08-20T11:36:33;4.88;;;1.48;;
40827;SDS011;26549;50.918;5.338;2023-08-20T11:39:00;5.43;;;1.50;;
40827;SDS011;26549;50.918;5.338;2023-08-20T11:41:26;4.45;;;1.65;;
40827;SDS011;26549;50.918;5.338;2023-08-20T11:43:52;5.75;;;1.50;;
40827;SDS011;26549;50.918;5.338;2023-08-20T11:46:19;5.43;;;1.73;;
40827;SDS011;26549;50.918;5.338;2023-08-20T11:49:05;3.58;;;1.60;;
40827;SDS011;26549;50.918;5.338;2023-08-20T11:51:42;7.03;;;1.67;;
40827;SDS011;26549;50.918;5.338;2023-08-20T11:54:13;3.90;;;1.65;;
40827;SDS011;26549;50.918;5.338;2023-08-20T11:56:47;3.03;;;1.77;;
40827;SDS011;26549;50.918;5.338;2023-08-20T11:59:15;3.70;;;1.55;;
40827;SDS011;26549;50.918;5.338;2023-08-20T12:01:42;4.05;;;2.42;;
40827;SDS011;26549;50.918;5.338;2023-08-20T12:04:09;2.40;;;1.83;;
40827;SDS011;26549;50.918;5.338;2023-08-20T12:06:36;2.83;;;1.45;;
40827;SDS011;26549;50.918;5.338;2023-08-20T12:09:17;5.57;;;1.63;;
40827;SDS011;26549;50.918;5.338;2023-08-20T12:11:51;5.93;;;1.55;;
40827;SDS011;26549;50.918;5.338;2023-08-20T12:14:18;6.97;;;2.15;;
40827;SDS011;26549;50.918;5.338;2023-08-20T12:16:44;6.30;;;1.35;;
40827;SDS011;26549;50.918;5.338;2023-08-20T12:19:10;4.05;;;1.30;;
40827;SDS011;26549;50.918;5.338;2023-08-20T12:21:37;6.00;;;1.33;;
40827;SDS011;26549;50.918;5.338;2023-08-20T12:24:03;4.47;;;1.25;;
40827;SDS011;26549;50.918;5.338;2023-08-20T12:26:29;7.28;;;2.72;;
40827;SDS011;26549;50.918;5.338;2023-08-20T12:28:55;3.78;;;1.38;;
40827;SDS011;26549;50.918;5.338;2023-08-20T12:31:25;5.30;;;1.48;;
40827;SDS011;26549;50.918;5.338;2023-08-20T12:33:51;5.10;;;1.70;;
40827;SDS011;26549;50.918;5.338;2023-08-20T12:36:17;4.85;;;1.27;;
40827;SDS011;26549;50.918;5.338;2023-08-20T12:38:43;6.65;;;1.38;;
40827;SDS011;26549;50.918;5.338;2023-08-20T12:41:11;3.85;;;1.40;;
40827;SDS011;26549;50.918;5.338;2023-08-20T12:43:37;4.18;;;1.20;;
40827;SDS011;26549;50.918;5.338;2023-08-20T12:46:03;5.07;;;1.23;;
40827;SDS011;26549;50.918;5.338;2023-08-20T12:48:30;9.13;;;3.08;;
40827;SDS011;26549;50.918;5.338;2023-08-20T12:50:56;3.88;;;1.20;;
40827;SDS011;26549;50.918;5.338;2023-08-20T12:53:22;2.65;;;1.10;;
40827;SDS011;26549;50.918;5.338;2023-08-20T12:55:48;4.07;;;1.40;;
40827;SDS011;26549;50.918;5.338;2023-08-20T12:58:14;2.55;;;0.95;;
40827;SDS011;26549;50.918;5.338;2023-08-20T13:00:40;4.80;;;1.17;;
40827;SDS011;26549;50.918;5.338;2023-08-20T13:03:07;7.85;;;1.83;;
40827;SDS011;26549;50.918;5.338;2023-08-20T13:05:34;2.63;;;0.88;;
40827;SDS011;26549;50.918;5.338;2023-08-20T13:08:00;2.35;;;1.00;;
40827;SDS011;26549;50.918;5.338;2023-08-20T13:10:27;5.85;;;1.77;;
40827;SDS011;26549;50.918;5.338;2023-08-20T13:12:54;5.45;;;1.83;;
40827;SDS011;26549;50.918;5.338;2023-08-20T13:15:26;6.32;;;1.10;;
40827;SDS011;26549;50.918;5.338;2023-08-20T13:17:53;1.95;;;1.15;;
40827;SDS011;26549;50.918;5.338;2023-08-20T13:20:20;2.03;;;0.82;;
40827;SDS011;26549;50.918;5.338;2023-08-20T13:22:50;2.92;;;1.42;;
40827;SDS011;26549;50.918;5.338;2023-08-20T13:25:17;5.07;;;1.77;;
40827;SDS011;26549;50.918;5.338;2023-08-20T13:27:46;4.43;;;1.63;;
40827;SDS011;26549;50.918;5.338;2023-08-20T13:30:13;4.75;;;1.67;;
40827;SDS011;26549;50.918;5.338;2023-08-20T13:32:39;3.65;;;1.15;;
40827;SDS011;26549;50.918;5.338;2023-08-20T13:35:07;5.10;;;1.60;;
40827;SDS011;26549;50.918;5.338;2023-08-20T13:37:33;3.00;;;1.55;;
40827;SDS011;26549;50.918;5.338;2023-08-20T13:40:02;4.82;;;1.00;;
40827;SDS011;26549;50.918;5.338;2023-08-20T13:42:29;5.45;;;1.95;;
40827;SDS011;26549;50.918;5.338;2023-08-20T13:44:55;3.20;;;0.80;;
40827;SDS011;26549;50.918;5.338;2023-08-20T13:47:21;5.18;;;1.67;;
40827;SDS011;26549;50.918;5.338;2023-08-20T13:49:47;2.53;;;1.15;;
40827;SDS011;26549;50.918;5.338;2023-08-20T13:52:15;4.57;;;0.80;;
40827;SDS011;26549;50.918;5.338;2023-08-20T13:54:41;4.68;;;1.25;;
40827;SDS011;26549;50.918;5.338;2023-08-20T13:57:09;1.33;;;0.70;;
40827;SDS011;26549;50.918;5.338;2023-08-20T13:59:35;3.70;;;0.90;;
40827;SDS011;26549;50.918;5.338;2023-08-20T14:02:01;5.15;;;1.45;;
40827;SDS011;26549;50.918;5.338;2023-08-20T14:04:27;3.05;;;0.80;;
40827;SDS011;26549;50.918;5.338;2023-08-20T14:06:54;2.67;;;0.93;;
40827;SDS011;26549;50.918;5.338;2023-08-20T14:09:20;6.72;;;1.23;;
40827;SDS011;26549;50.918;5.338;2023-08-20T14:11:46;6.00;;;1.73;;
40827;SDS011;26549;50.918;5.338;2023-08-20T14:14:12;3.05;;;1.20;;
40827;SDS011;26549;50.918;5.338;2023-08-20T14:16:38;3.95;;;1.15;;
40827;SDS011;26549;50.918;5.338;2023-08-20T14:19:04;5.38;;;1.27;;
40827;SDS011;26549;50.918;5.338;2023-08-20T14:21:30;3.25;;;1.00;;
40827;SDS011;26549;50.918;5.338;2023-08-20T14:23:56;1.30;;;0.80;;
40827;SDS011;26549;50.918;5.338;2023-08-20T14:26:23;2.40;;;0.77;;
40827;SDS011;26549;50.918;5.338;2023-08-20T14:28:49;2.85;;;0.88;;
40827;SDS011;26549;50.918;5.338;2023-08-20T14:31:15;2.38;;;0.73;;
40827;SDS011;26549;50.918;5.338;2023-08-20T14:33:40;4.70;;;1.55;;
40827;SDS011;26549;50.918;5.338;2023-08-20T14:36:06;1.73;;;0.80;;
40827;SDS011;26549;50.918;5.338;2023-08-20T14:38:33;4.65;;;1.13;;
40827;SDS011;26549;50.918;5.338;2023-08-20T14:40:59;4.05;;;1.33;;
40827;SDS011;26549;50.918;5.338;2023-08-20T14:43:26;1.73;;;0.65;;
40827;SDS011;26549;50.918;5.338;2023-08-20T14:45:52;3.47;;;0.60;;
40827;SDS011;26549;50.918;5.338;2023-08-20T14:48:19;2.45;;;0.82;;
40827;SDS011;26549;50.918;5.338;2023-08-20T14:50:45;2.25;;;0.95;;
40827;SDS011;26549;50.918;5.338;2023-08-20T14:53:11;2.08;;;0.63;;
40827;SDS011;26549;50.918;5.338;2023-08-20T14:55:37;4.68;;;1.13;;
40827;SDS011;26549;50.918;5.338;2023-08-20T14:58:03;5.20;;;1.10;;
40827;SDS011;26549;50.918;5.338;2023-08-20T15:00:31;2.13;;;1.38;;
40827;SDS011;26549;50.918;5.338;2023-08-20T15:02:57;2.72;;;0.68;;
40827;SDS011;26549;50.918;5.338;2023-08-20T15:05:23;2.47;;;0.68;;
40827;SDS011;26549;50.918;5.338;2023-08-20T15:07:49;1.50;;;0.65;;
40827;SDS011;26549;50.918;5.338;2023-08-20T15:10:15;2.03;;;0.70;;
40827;SDS011;26549;50.918;5.338;2023-08-20T15:12:41;1.23;;;0.57;;